sensor_id;sensor_type;location;lat;lon;timestamp;P1;durP1;ratioP1;P2;durP2;ratioP2
63320;SDS011;49449;48.800;9.534;2023-02-23T00:01:22;11.45;;;8.80;;
63320;SDS011;49449;48.800;9.534;2023-02-23T00:03:54;12.13;;;8.05;;
63320;SDS011;49449;48.800;9.534;2023-02-23T00:06:23;14.05;;;8.68;;
63320;SDS011;49449;48.800;9.534;2023-02-23T00:08:52;10.77;;;8.32;;
63320;SDS011;49449;48.800;9.534;2023-02-23T00:11:20;11.23;;;8.43;;
63320;SDS011;49449;48.800;9.534;2023-02-23T00:13:49;11.85;;;8.35;;
63320;SDS011;49449;48.800;9.534;2023-02-23T00:16:19;10.30;;;7.72;;
63320;SDS011;49449;48.800;9.534;2023-02-23T00:18:49;12.65;;;8.05;;
63320;SDS011;49449;48.800;9.534;2023-02-23T00:21:20;10.82;;;8.40;;
63320;SDS011;49449;48.800;9.534;2023-02-23T00:23:50;9.80;;;7.78;;
63320;SDS011;49449;48.800;9.534;2023-02-23T00:26:20;12.05;;;9.05;;
63320;SDS011;49449;48.800;9.534;2023-02-23T00:28:49;10.95;;;6.78;;
63320;SDS011;49449;48.800;9.534;2023-02-23T00:31:19;11.25;;;8.63;;
63320;SDS011;49449;48.800;9.534;2023-02-23T00:33:50;13.05;;;8.35;;
63320;SDS011;49449;48.800;9.534;2023-02-23T00:36:21;10.23;;;8.23;;
63320;SDS011;49449;48.800;9.534;2023-02-23T00:38:51;10.98;;;9.05;;
63320;SDS011;49449;48.800;9.534;2023-02-23T00:41:19;9.65;;;7.50;;
63320;SDS011;49449;48.800;9.534;2023-02-23T00:43:49;10.20;;;8.55;;
63320;SDS011;49449;48.800;9.534;2023-02-23T00:46:20;9.45;;;7.55;;
63320;SDS011;49449;48.800;9.534;2023-02-23T00:48:49;10.55;;;8.30;;
63320;SDS011;49449;48.800;9.534;2023-02-23T00:51:17;11.52;;;7.82;;
63320;SDS011;49449;48.800;9.534;2023-02-23T00:53:47;9.02;;;7.97;;
63320;SDS011;49449;48.800;9.534;2023-02-23T00:56:14;10.05;;;7.85;;
63320;SDS011;49449;48.800;9.534;2023-02-23T00:58:42;10.80;;;7.80;;
63320;SDS011;49449;48.800;9.534;2023-02-23T01:01:11;9.38;;;7.43;;
63320;SDS011;49449;48.800;9.534;2023-02-23T01:03:41;11.75;;;7.40;;
63320;SDS011;49449;48.800;9.534;2023-02-23T01:06:10;9.70;;;7.70;;
63320;SDS011;49449;48.800;9.534;2023-02-23T01:08:39;9.52;;;7.90;;
63320;SDS011;49449;48.800;9.534;2023-02-23T01:11:11;10.90;;;7.55;;
63320;SDS011;49449;48.800;9.534;2023-02-23T01:13:42;12.80;;;8.48;;
63320;SDS011;49449;48.800;9.534;2023-02-23T01:16:12;11.32;;;7.95;;
63320;SDS011;49449;48.800;9.534;2023-02-23T01:18:41;10.88;;;7.65;;
63320;SDS011;49449;48.800;9.534;2023-02-23T01:21:13;11.38;;;8.65;;
63320;SDS011;49449;48.800;9.534;2023-02-23T01:23:42;9.88;;;7.70;;
63320;SDS011;49449;48.800;9.534;2023-02-23T01:26:15;11.50;;;7.60;;
63320;SDS011;49449;48.800;9.534;2023-02-23T01:28:47;8.65;;;7.07;;
63320;SDS011;49449;48.800;9.534;2023-02-23T01:31:16;9.52;;;7.28;;
63320;SDS011;49449;48.800;9.534;2023-02-23T01:33:44;9.45;;;7.72;;
63320;SDS011;49449;48.800;9.534;2023-02-23T01:36:12;9.82;;;8.13;;
63320;SDS011;49449;48.800;9.534;2023-02-23T01:38:40;8.60;;;7.25;;
63320;SDS011;49449;48.800;9.534;2023-02-23T01:41:08;10.93;;;7.45;;
63320;SDS011;49449;48.800;9.534;2023-02-23T01:46:23;9.48;;;7.28;;
63320;SDS011;49449;48.800;9.534;2023-02-23T01:48:51;10.30;;;7.60;;
63320;SDS011;49449;48.800;9.534;2023-02-23T01:51:22;8.73;;;7.20;;
63320;SDS011;49449;48.800;9.534;2023-02-23T01:53:55;10.68;;;7.70;;
63320;SDS011;49449;48.800;9.534;2023-02-23T01:56:28;11.75;;;7.97;;
63320;SDS011;49449;48.800;9.534;2023-02-23T01:59:02;10.80;;;7.82;;
63320;SDS011;49449;48.800;9.534;2023-02-23T02:01:34;10.20;;;7.47;;
63320;SDS011;49449;48.800;9.534;2023-02-23T02:04:03;11.50;;;8.55;;
63320;SDS011;49449;48.800;9.534;2023-02-23T02:06:32;10.43;;;8.00;;
63320;SDS011;49449;48.800;9.534;2023-02-23T02:09:03;10.63;;;8.45;;
63320;SDS011;49449;48.800;9.534;2023-02-23T02:11:35;11.07;;;8.57;;
63320;SDS011;49449;48.800;9.534;2023-02-23T02:14:08;11.75;;;8.52;;
63320;SDS011;49449;48.800;9.534;2023-02-23T02:16:51;10.55;;;7.75;;
63320;SDS011;49449;48.800;9.534;2023-02-23T02:19:46;9.55;;;7.10;;
63320;SDS011;49449;48.800;9.534;2023-02-23T02:22:46;10.63;;;8.63;;
63320;SDS011;49449;48.800;9.534;2023-02-23T02:25:35;8.73;;;7.15;;
63320;SDS011;49449;48.800;9.534;2023-02-23T02:31:29;10.07;;;7.45;;
63320;SDS011;49449;48.800;9.534;2023-02-23T02:34:24;10.95;;;7.68;;
63320;SDS011;49449;48.800;9.534;2023-02-23T02:37:20;10.27;;;7.85;;
63320;SDS011;49449;48.800;9.534;2023-02-23T02:39:58;11.52;;;7.85;;
63320;SDS011;49449;48.800;9.534;2023-02-23T02:42:46;11.98;;;7.90;;
63320;SDS011;49449;48.800;9.534;2023-02-23T02:45:41;8.98;;;7.68;;
63320;SDS011;49449;48.800;9.534;2023-02-23T02:48:17;10.23;;;7.88;;
63320;SDS011;49449;48.800;9.534;2023-02-23T02:50:52;10.93;;;7.53;;
63320;SDS011;49449;48.800;9.534;2023-02-23T02:53:25;9.80;;;7.53;;
63320;SDS011;49449;48.800;9.534;2023-02-23T02:56:00;9.50;;;7.90;;
63320;SDS011;49449;48.800;9.534;2023-02-23T02:58:31;9.02;;;7.30;;
63320;SDS011;49449;48.800;9.534;2023-02-23T03:01:04;11.07;;;9.50;;
63320;SDS011;49449;48.800;9.534;2023-02-23T03:03:51;11.60;;;7.72;;
63320;SDS011;49449;48.800;9.534;2023-02-23T03:06:37;10.50;;;8.05;;
63320;SDS011;49449;48.800;9.534;2023-02-23T03:09:33;9.45;;;7.50;;
63320;SDS011;49449;48.800;9.534;2023-02-23T03:12:26;10.32;;;7.47;;
63320;SDS011;49449;48.800;9.534;2023-02-23T03:15:23;9.13;;;7.45;;
63320;SDS011;49449;48.800;9.534;2023-02-23T03:18:24;10.90;;;8.77;;
63320;SDS011;49449;48.800;9.534;2023-02-23T03:21:24;11.73;;;7.80;;
63320;SDS011;49449;48.800;9.534;2023-02-23T03:24:16;10.23;;;7.68;;
63320;SDS011;49449;48.800;9.534;2023-02-23T03:27:14;9.75;;;8.25;;
63320;SDS011;49449;48.800;9.534;2023-02-23T03:30:05;8.77;;;7.13;;
63320;SDS011;49449;48.800;9.534;2023-02-23T03:33:00;9.38;;;7.35;;
63320;SDS011;49449;48.800;9.534;2023-02-23T03:35:53;9.52;;;7.22;;
63320;SDS011;49449;48.800;9.534;2023-02-23T03:38:42;10.80;;;8.43;;
63320;SDS011;49449;48.800;9.534;2023-02-23T03:41:30;11.32;;;9.00;;
63320;SDS011;49449;48.800;9.534;2023-02-23T03:44:21;10.27;;;7.97;;
63320;SDS011;49449;48.800;9.534;2023-02-23T03:47:14;10.82;;;7.80;;
63320;SDS011;49449;48.800;9.534;2023-02-23T03:50:03;9.73;;;8.55;;
63320;SDS011;49449;48.800;9.534;2023-02-23T03:52:53;12.35;;;9.05;;
63320;SDS011;49449;48.800;9.534;2023-02-23T03:55:43;9.50;;;8.15;;
63320;SDS011;49449;48.800;9.534;2023-02-23T03:58:32;10.75;;;8.00;;
63320;SDS011;49449;48.800;9.534;2023-02-23T04:01:22;10.32;;;9.05;;
63320;SDS011;49449;48.800;9.534;2023-02-23T04:04:10;10.20;;;7.43;;
63320;SDS011;49449;48.800;9.534;2023-02-23T04:06:56;10.77;;;8.40;;
63320;SDS011;49449;48.800;9.534;2023-02-23T04:09:44;10.32;;;8.45;;
63320;SDS011;49449;48.800;9.534;2023-02-23T04:12:31;10.70;;;8.07;;
63320;SDS011;49449;48.800;9.534;2023-02-23T04:15:22;9.60;;;8.02;;
63320;SDS011;49449;48.800;9.534;2023-02-23T04:17:54;11.40;;;8.00;;
63320;SDS011;49449;48.800;9.534;2023-02-23T04:20:22;10.75;;;8.82;;
63320;SDS011;49449;48.800;9.534;2023-02-23T04:22:51;8.65;;;7.75;;
63320;SDS011;49449;48.800;9.534;2023-02-23T04:25:18;11.05;;;8.52;;
63320;SDS011;49449;48.800;9.534;2023-02-23T04:27:48;11.43;;;8.90;;
63320;SDS011;49449;48.800;9.534;2023-02-23T04:30:16;10.85;;;8.52;;
63320;SDS011;49449;48.800;9.534;2023-02-23T04:32:45;12.38;;;8.77;;
63320;SDS011;49449;48.800;9.534;2023-02-23T04:35:17;11.38;;;9.77;;
63320;SDS011;49449;48.800;9.534;2023-02-23T04:37:45;11.27;;;8.60;;
63320;SDS011;49449;48.800;9.534;2023-02-23T04:40:12;11.85;;;8.55;;
63320;SDS011;49449;48.800;9.534;2023-02-23T04:42:40;11.02;;;8.40;;
63320;SDS011;49449;48.800;9.534;2023-02-23T04:45:09;10.93;;;8.85;;
63320;SDS011;49449;48.800;9.534;2023-02-23T04:47:37;11.48;;;8.63;;
63320;SDS011;49449;48.800;9.534;2023-02-23T04:50:05;10.70;;;8.30;;
63320;SDS011;49449;48.800;9.534;2023-02-23T04:52:35;12.32;;;8.77;;
63320;SDS011;49449;48.800;9.534;2023-02-23T04:55:04;11.68;;;8.77;;
63320;SDS011;49449;48.800;9.534;2023-02-23T04:57:33;12.55;;;10.00;;
63320;SDS011;49449;48.800;9.534;2023-02-23T05:00:02;11.27;;;9.00;;
63320;SDS011;49449;48.800;9.534;2023-02-23T05:02:30;12.85;;;8.88;;
63320;SDS011;49449;48.800;9.534;2023-02-23T05:04:58;13.38;;;9.13;;
63320;SDS011;49449;48.800;9.534;2023-02-23T05:07:26;10.23;;;7.88;;
63320;SDS011;49449;48.800;9.534;2023-02-23T05:09:55;11.82;;;9.40;;
63320;SDS011;49449;48.800;9.534;2023-02-23T05:12:23;10.98;;;8.13;;
63320;SDS011;49449;48.800;9.534;2023-02-23T05:14:50;11.73;;;8.80;;
63320;SDS011;49449;48.800;9.534;2023-02-23T05:17:18;13.10;;;8.82;;
63320;SDS011;49449;48.800;9.534;2023-02-23T05:19:46;10.10;;;8.43;;
63320;SDS011;49449;48.800;9.534;2023-02-23T05:22:14;11.35;;;8.68;;
63320;SDS011;49449;48.800;9.534;2023-02-23T05:24:42;11.38;;;8.55;;
63320;SDS011;49449;48.800;9.534;2023-02-23T05:27:11;11.73;;;9.25;;
63320;SDS011;49449;48.800;9.534;2023-02-23T05:29:39;11.00;;;9.60;;
63320;SDS011;49449;48.800;9.534;2023-02-23T05:32:07;10.10;;;8.80;;
63320;SDS011;49449;48.800;9.534;2023-02-23T05:34:34;12.38;;;10.00;;
63320;SDS011;49449;48.800;9.534;2023-02-23T05:37:04;12.55;;;11.00;;
63320;SDS011;49449;48.800;9.534;2023-02-23T05:39:32;11.63;;;9.07;;
63320;SDS011;49449;48.800;9.534;2023-02-23T05:42:00;11.88;;;8.82;;
63320;SDS011;49449;48.800;9.534;2023-02-23T05:44:29;10.70;;;8.60;;
63320;SDS011;49449;48.800;9.534;2023-02-23T05:46:57;11.52;;;9.45;;
63320;SDS011;49449;48.800;9.534;2023-02-23T05:49:24;10.98;;;9.85;;
63320;SDS011;49449;48.800;9.534;2023-02-23T05:51:52;11.20;;;8.85;;
63320;SDS011;49449;48.800;9.534;2023-02-23T05:54:20;11.00;;;8.63;;
63320;SDS011;49449;48.800;9.534;2023-02-23T05:56:48;13.07;;;10.10;;
63320;SDS011;49449;48.800;9.534;2023-02-23T05:59:16;12.32;;;9.43;;
63320;SDS011;49449;48.800;9.534;2023-02-23T06:01:45;13.68;;;10.07;;
63320;SDS011;49449;48.800;9.534;2023-02-23T06:04:12;11.65;;;10.10;;
63320;SDS011;49449;48.800;9.534;2023-02-23T06:06:40;11.32;;;9.80;;
63320;SDS011;49449;48.800;9.534;2023-02-23T06:09:08;13.35;;;10.05;;
63320;SDS011;49449;48.800;9.534;2023-02-23T06:11:36;13.82;;;9.82;;
63320;SDS011;49449;48.800;9.534;2023-02-23T06:14:04;13.45;;;9.70;;
63320;SDS011;49449;48.800;9.534;2023-02-23T06:16:31;12.45;;;9.27;;
63320;SDS011;49449;48.800;9.534;2023-02-23T06:19:00;11.38;;;9.00;;
63320;SDS011;49449;48.800;9.534;2023-02-23T06:21:28;11.65;;;9.48;;
63320;SDS011;49449;48.800;9.534;2023-02-23T06:23:56;12.73;;;10.10;;
63320;SDS011;49449;48.800;9.534;2023-02-23T06:26:25;11.20;;;9.55;;
63320;SDS011;49449;48.800;9.534;2023-02-23T06:28:53;11.02;;;9.25;;
63320;SDS011;49449;48.800;9.534;2023-02-23T06:31:22;13.18;;;10.23;;
63320;SDS011;49449;48.800;9.534;2023-02-23T06:33:50;13.25;;;9.73;;
63320;SDS011;49449;48.800;9.534;2023-02-23T06:36:20;12.30;;;9.52;;
63320;SDS011;49449;48.800;9.534;2023-02-23T06:38:48;12.43;;;9.73;;
63320;SDS011;49449;48.800;9.534;2023-02-23T06:41:15;10.95;;;9.35;;
63320;SDS011;49449;48.800;9.534;2023-02-23T06:43:44;13.02;;;9.75;;
63320;SDS011;49449;48.800;9.534;2023-02-23T06:46:11;12.13;;;10.15;;
63320;SDS011;49449;48.800;9.534;2023-02-23T06:48:39;12.50;;;9.80;;
63320;SDS011;49449;48.800;9.534;2023-02-23T06:51:07;13.43;;;10.63;;
63320;SDS011;49449;48.800;9.534;2023-02-23T06:53:36;14.48;;;10.60;;
63320;SDS011;49449;48.800;9.534;2023-02-23T06:56:04;12.93;;;10.90;;
63320;SDS011;49449;48.800;9.534;2023-02-23T06:58:32;13.52;;;10.50;;
63320;SDS011;49449;48.800;9.534;2023-02-23T07:01:00;12.70;;;10.73;;
63320;SDS011;49449;48.800;9.534;2023-02-23T07:03:28;15.55;;;11.10;;
63320;SDS011;49449;48.800;9.534;2023-02-23T07:05:56;13.23;;;11.38;;
63320;SDS011;49449;48.800;9.534;2023-02-23T07:08:23;13.43;;;10.63;;
63320;SDS011;49449;48.800;9.534;2023-02-23T07:10:53;13.05;;;10.75;;
63320;SDS011;49449;48.800;9.534;2023-02-23T07:13:22;12.90;;;10.45;;
63320;SDS011;49449;48.800;9.534;2023-02-23T07:15:55;11.32;;;9.43;;
63320;SDS011;49449;48.800;9.534;2023-02-23T07:18:23;14.43;;;11.18;;
63320;SDS011;49449;48.800;9.534;2023-02-23T07:20:52;15.02;;;10.93;;
63320;SDS011;49449;48.800;9.534;2023-02-23T07:23:19;13.38;;;10.73;;
63320;SDS011;49449;48.800;9.534;2023-02-23T07:25:48;13.48;;;10.43;;
63320;SDS011;49449;48.800;9.534;2023-02-23T07:28:18;12.60;;;10.68;;
63320;SDS011;49449;48.800;9.534;2023-02-23T07:30:46;14.02;;;10.23;;
63320;SDS011;49449;48.800;9.534;2023-02-23T07:33:15;12.43;;;10.35;;
63320;SDS011;49449;48.800;9.534;2023-02-23T07:35:43;12.50;;;10.10;;
63320;SDS011;49449;48.800;9.534;2023-02-23T07:38:11;12.23;;;9.98;;
63320;SDS011;49449;48.800;9.534;2023-02-23T07:40:38;14.10;;;11.68;;
63320;SDS011;49449;48.800;9.534;2023-02-23T07:43:06;15.35;;;10.45;;
63320;SDS011;49449;48.800;9.534;2023-02-23T07:45:35;13.82;;;11.95;;
63320;SDS011;49449;48.800;9.534;2023-02-23T07:48:04;16.67;;;13.20;;
63320;SDS011;49449;48.800;9.534;2023-02-23T07:50:32;17.20;;;13.50;;
63320;SDS011;49449;48.800;9.534;2023-02-23T07:53:00;15.82;;;13.90;;
63320;SDS011;49449;48.800;9.534;2023-02-23T07:55:28;18.42;;;14.55;;
63320;SDS011;49449;48.800;9.534;2023-02-23T07:57:56;15.05;;;12.80;;
63320;SDS011;49449;48.800;9.534;2023-02-23T08:00:24;18.42;;;14.02;;
63320;SDS011;49449;48.800;9.534;2023-02-23T08:02:53;20.02;;;15.18;;
63320;SDS011;49449;48.800;9.534;2023-02-23T08:05:21;22.20;;;17.35;;
63320;SDS011;49449;48.800;9.534;2023-02-23T08:07:51;20.05;;;15.23;;
63320;SDS011;49449;48.800;9.534;2023-02-23T08:10:19;16.95;;;13.00;;
63320;SDS011;49449;48.800;9.534;2023-02-23T08:12:47;17.58;;;14.73;;
63320;SDS011;49449;48.800;9.534;2023-02-23T08:15:15;18.15;;;13.07;;
63320;SDS011;49449;48.800;9.534;2023-02-23T08:17:42;17.42;;;14.80;;
63320;SDS011;49449;48.800;9.534;2023-02-23T08:20:11;16.23;;;13.20;;
63320;SDS011;49449;48.800;9.534;2023-02-23T08:22:39;16.45;;;12.95;;
63320;SDS011;49449;48.800;9.534;2023-02-23T08:25:14;18.02;;;14.57;;
63320;SDS011;49449;48.800;9.534;2023-02-23T08:27:42;19.05;;;14.07;;
63320;SDS011;49449;48.800;9.534;2023-02-23T08:30:10;18.08;;;13.75;;
63320;SDS011;49449;48.800;9.534;2023-02-23T08:32:39;18.17;;;14.70;;
63320;SDS011;49449;48.800;9.534;2023-02-23T08:35:08;19.23;;;14.38;;
63320;SDS011;49449;48.800;9.534;2023-02-23T08:37:37;17.60;;;13.43;;
63320;SDS011;49449;48.800;9.534;2023-02-23T08:40:06;20.58;;;15.85;;
63320;SDS011;49449;48.800;9.534;2023-02-23T08:42:34;18.58;;;14.18;;
63320;SDS011;49449;48.800;9.534;2023-02-23T08:45:02;19.92;;;13.52;;
63320;SDS011;49449;48.800;9.534;2023-02-23T08:47:32;17.75;;;13.85;;
63320;SDS011;49449;48.800;9.534;2023-02-23T08:50:01;18.90;;;15.05;;
63320;SDS011;49449;48.800;9.534;2023-02-23T08:52:30;18.50;;;16.10;;
63320;SDS011;49449;48.800;9.534;2023-02-23T08:54:59;16.13;;;12.82;;
63320;SDS011;49449;48.800;9.534;2023-02-23T08:57:27;18.65;;;15.07;;
63320;SDS011;49449;48.800;9.534;2023-02-23T08:59:54;19.77;;;15.60;;
63320;SDS011;49449;48.800;9.534;2023-02-23T09:02:22;18.30;;;15.18;;
63320;SDS011;49449;48.800;9.534;2023-02-23T09:04:50;19.50;;;14.43;;
63320;SDS011;49449;48.800;9.534;2023-02-23T09:07:20;20.23;;;14.95;;
63320;SDS011;49449;48.800;9.534;2023-02-23T09:09:52;17.55;;;15.52;;
63320;SDS011;49449;48.800;9.534;2023-02-23T09:12:21;19.02;;;14.88;;
63320;SDS011;49449;48.800;9.534;2023-02-23T09:14:49;17.02;;;13.50;;
63320;SDS011;49449;48.800;9.534;2023-02-23T09:17:19;18.13;;;15.70;;
63320;SDS011;49449;48.800;9.534;2023-02-23T09:19:48;21.30;;;17.50;;
63320;SDS011;49449;48.800;9.534;2023-02-23T09:22:16;19.30;;;15.10;;
63320;SDS011;49449;48.800;9.534;2023-02-23T09:24:45;19.98;;;16.33;;
63320;SDS011;49449;48.800;9.534;2023-02-23T09:27:12;16.00;;;13.80;;
63320;SDS011;49449;48.800;9.534;2023-02-23T09:29:44;19.77;;;15.15;;
63320;SDS011;49449;48.800;9.534;2023-02-23T09:32:12;17.52;;;13.85;;
63320;SDS011;49449;48.800;9.534;2023-02-23T09:34:40;16.77;;;12.82;;
63320;SDS011;49449;48.800;9.534;2023-02-23T09:37:08;19.00;;;13.75;;
63320;SDS011;49449;48.800;9.534;2023-02-23T09:39:35;17.38;;;13.20;;
63320;SDS011;49449;48.800;9.534;2023-02-23T09:42:09;22.05;;;15.27;;
63320;SDS011;49449;48.800;9.534;2023-02-23T09:44:50;23.70;;;17.30;;
63320;SDS011;49449;48.800;9.534;2023-02-23T09:47:30;26.27;;;18.75;;
63320;SDS011;49449;48.800;9.534;2023-02-23T09:52:40;21.92;;;15.82;;
63320;SDS011;49449;48.800;9.534;2023-02-23T09:55:11;22.77;;;16.38;;
63320;SDS011;49449;48.800;9.534;2023-02-23T09:57:41;22.23;;;17.02;;
63320;SDS011;49449;48.800;9.534;2023-02-23T10:02:53;17.65;;;14.35;;
63320;SDS011;49449;48.800;9.534;2023-02-23T10:05:29;16.08;;;12.98;;
63320;SDS011;49449;48.800;9.534;2023-02-23T10:08:05;16.77;;;13.07;;
63320;SDS011;49449;48.800;9.534;2023-02-23T10:10:36;17.02;;;12.93;;
63320;SDS011;49449;48.800;9.534;2023-02-23T10:13:12;15.60;;;12.40;;
63320;SDS011;49449;48.800;9.534;2023-02-23T10:15:48;15.35;;;12.15;;
63320;SDS011;49449;48.800;9.534;2023-02-23T10:18:21;15.65;;;11.90;;
63320;SDS011;49449;48.800;9.534;2023-02-23T10:21:11;14.63;;;12.18;;
63320;SDS011;49449;48.800;9.534;2023-02-23T10:23:46;15.65;;;11.27;;
63320;SDS011;49449;48.800;9.534;2023-02-23T10:26:19;15.07;;;11.43;;
63320;SDS011;49449;48.800;9.534;2023-02-23T10:28:49;14.02;;;11.50;;
63320;SDS011;49449;48.800;9.534;2023-02-23T10:31:25;13.93;;;11.40;;
63320;SDS011;49449;48.800;9.534;2023-02-23T10:33:57;13.25;;;10.15;;
63320;SDS011;49449;48.800;9.534;2023-02-23T10:36:34;11.18;;;8.65;;
63320;SDS011;49449;48.800;9.534;2023-02-23T10:39:04;12.63;;;10.23;;
63320;SDS011;49449;48.800;9.534;2023-02-23T10:41:33;13.65;;;10.27;;
63320;SDS011;49449;48.800;9.534;2023-02-23T10:44:02;10.32;;;8.13;;
63320;SDS011;49449;48.800;9.534;2023-02-23T10:46:43;12.02;;;9.35;;
63320;SDS011;49449;48.800;9.534;2023-02-23T10:51:44;10.70;;;8.93;;
63320;SDS011;49449;48.800;9.534;2023-02-23T10:57:10;12.07;;;8.70;;
63320;SDS011;49449;48.800;9.534;2023-02-23T10:59:58;11.82;;;8.35;;
63320;SDS011;49449;48.800;9.534;2023-02-23T11:02:42;11.48;;;8.65;;
63320;SDS011;49449;48.800;9.534;2023-02-23T11:05:25;11.15;;;8.60;;
63320;SDS011;49449;48.800;9.534;2023-02-23T11:08:10;12.20;;;8.73;;
63320;SDS011;49449;48.800;9.534;2023-02-23T11:11:00;10.88;;;7.18;;
63320;SDS011;49449;48.800;9.534;2023-02-23T11:13:33;9.20;;;7.30;;
63320;SDS011;49449;48.800;9.534;2023-02-23T11:16:04;11.80;;;7.63;;
63320;SDS011;49449;48.800;9.534;2023-02-23T11:18:37;9.40;;;6.65;;
63320;SDS011;49449;48.800;9.534;2023-02-23T11:21:11;10.85;;;7.63;;
63320;SDS011;49449;48.800;9.534;2023-02-23T11:23:44;11.18;;;7.55;;
63320;SDS011;49449;48.800;9.534;2023-02-23T11:26:19;9.88;;;7.05;;
63320;SDS011;49449;48.800;9.534;2023-02-23T11:28:54;10.55;;;8.20;;
63320;SDS011;49449;48.800;9.534;2023-02-23T11:31:27;11.82;;;8.57;;
63320;SDS011;49449;48.800;9.534;2023-02-23T11:33:59;10.50;;;6.80;;
63320;SDS011;49449;48.800;9.534;2023-02-23T11:36:29;9.02;;;6.85;;
63320;SDS011;49449;48.800;9.534;2023-02-23T11:41:45;7.78;;;5.55;;
63320;SDS011;49449;48.800;9.534;2023-02-23T11:44:17;8.35;;;5.82;;
63320;SDS011;49449;48.800;9.534;2023-02-23T11:46:47;7.70;;;5.57;;
63320;SDS011;49449;48.800;9.534;2023-02-23T11:49:18;9.32;;;5.65;;
63320;SDS011;49449;48.800;9.534;2023-02-23T11:51:49;9.40;;;5.57;;
63320;SDS011;49449;48.800;9.534;2023-02-23T11:54:20;8.93;;;5.88;;
63320;SDS011;49449;48.800;9.534;2023-02-23T11:56:53;6.53;;;4.63;;
63320;SDS011;49449;48.800;9.534;2023-02-23T11:59:25;7.72;;;4.88;;
63320;SDS011;49449;48.800;9.534;2023-02-23T12:01:58;6.65;;;4.90;;
63320;SDS011;49449;48.800;9.534;2023-02-23T12:04:34;8.82;;;4.80;;
63320;SDS011;49449;48.800;9.534;2023-02-23T12:10:11;7.88;;;4.57;;
63320;SDS011;49449;48.800;9.534;2023-02-23T12:12:44;6.15;;;4.00;;
63320;SDS011;49449;48.800;9.534;2023-02-23T12:15:25;7.15;;;4.07;;
63320;SDS011;49449;48.800;9.534;2023-02-23T12:17:58;6.60;;;4.22;;
63320;SDS011;49449;48.800;9.534;2023-02-23T12:20:35;7.97;;;4.55;;
63320;SDS011;49449;48.800;9.534;2023-02-23T12:23:05;6.80;;;3.90;;
63320;SDS011;49449;48.800;9.534;2023-02-23T12:25:37;4.32;;;3.25;;
63320;SDS011;49449;48.800;9.534;2023-02-23T12:28:09;4.50;;;3.40;;
63320;SDS011;49449;48.800;9.534;2023-02-23T12:30:45;5.95;;;3.38;;
63320;SDS011;49449;48.800;9.534;2023-02-23T12:35:50;8.82;;;4.07;;
63320;SDS011;49449;48.800;9.534;2023-02-23T12:38:25;5.05;;;3.22;;
63320;SDS011;49449;48.800;9.534;2023-02-23T12:41:00;5.47;;;3.10;;
63320;SDS011;49449;48.800;9.534;2023-02-23T12:43:34;4.53;;;3.40;;
63320;SDS011;49449;48.800;9.534;2023-02-23T12:46:08;7.57;;;3.03;;
63320;SDS011;49449;48.800;9.534;2023-02-23T12:48:45;5.97;;;3.42;;
63320;SDS011;49449;48.800;9.534;2023-02-23T12:51:23;4.88;;;3.38;;
63320;SDS011;49449;48.800;9.534;2023-02-23T12:53:56;4.55;;;3.33;;
63320;SDS011;49449;48.800;9.534;2023-02-23T12:56:37;5.13;;;3.70;;
63320;SDS011;49449;48.800;9.534;2023-02-23T12:59:21;5.38;;;3.38;;
63320;SDS011;49449;48.800;9.534;2023-02-23T13:02:09;4.07;;;2.58;;
63320;SDS011;49449;48.800;9.534;2023-02-23T13:04:51;4.10;;;2.50;;
63320;SDS011;49449;48.800;9.534;2023-02-23T13:07:41;4.78;;;3.47;;
63320;SDS011;49449;48.800;9.534;2023-02-23T13:10:14;6.43;;;3.78;;
63320;SDS011;49449;48.800;9.534;2023-02-23T13:12:53;7.57;;;4.97;;
63320;SDS011;49449;48.800;9.534;2023-02-23T13:15:34;4.82;;;3.42;;
63320;SDS011;49449;48.800;9.534;2023-02-23T13:18:13;7.55;;;3.50;;
63320;SDS011;49449;48.800;9.534;2023-02-23T13:20:50;5.78;;;3.60;;
63320;SDS011;49449;48.800;9.534;2023-02-23T13:23:25;5.88;;;3.70;;
63320;SDS011;49449;48.800;9.534;2023-02-23T13:25:59;6.53;;;2.97;;
63320;SDS011;49449;48.800;9.534;2023-02-23T13:28:40;3.20;;;2.67;;
63320;SDS011;49449;48.800;9.534;2023-02-23T13:31:18;5.57;;;3.00;;
63320;SDS011;49449;48.800;9.534;2023-02-23T13:33:49;4.82;;;3.13;;
63320;SDS011;49449;48.800;9.534;2023-02-23T13:36:19;5.40;;;3.17;;
63320;SDS011;49449;48.800;9.534;2023-02-23T13:38:55;5.60;;;3.60;;
63320;SDS011;49449;48.800;9.534;2023-02-23T13:41:45;5.82;;;3.97;;
63320;SDS011;49449;48.800;9.534;2023-02-23T13:44:21;5.63;;;3.60;;
63320;SDS011;49449;48.800;9.534;2023-02-23T13:46:57;5.43;;;3.97;;
63320;SDS011;49449;48.800;9.534;2023-02-23T13:49:34;5.93;;;3.00;;
63320;SDS011;49449;48.800;9.534;2023-02-23T13:52:08;5.75;;;4.03;;
63320;SDS011;49449;48.800;9.534;2023-02-23T13:54:51;5.97;;;3.28;;
63320;SDS011;49449;48.800;9.534;2023-02-23T13:57:23;7.13;;;4.28;;
63320;SDS011;49449;48.800;9.534;2023-02-23T13:59:53;4.90;;;3.47;;
63320;SDS011;49449;48.800;9.534;2023-02-23T14:02:22;6.45;;;3.55;;
63320;SDS011;49449;48.800;9.534;2023-02-23T14:05:00;6.53;;;3.33;;
63320;SDS011;49449;48.800;9.534;2023-02-23T14:07:30;4.95;;;2.90;;
63320;SDS011;49449;48.800;9.534;2023-02-23T14:10:03;4.43;;;3.33;;
63320;SDS011;49449;48.800;9.534;2023-02-23T14:12:33;5.25;;;3.40;;
63320;SDS011;49449;48.800;9.534;2023-02-23T14:18:27;7.82;;;3.45;;
63320;SDS011;49449;48.800;9.534;2023-02-23T14:21:10;4.18;;;3.08;;
63320;SDS011;49449;48.800;9.534;2023-02-23T14:23:50;5.97;;;3.80;;
63320;SDS011;49449;48.800;9.534;2023-02-23T14:26:41;5.93;;;4.68;;
63320;SDS011;49449;48.800;9.534;2023-02-23T14:29:24;4.82;;;3.55;;
63320;SDS011;49449;48.800;9.534;2023-02-23T14:31:56;5.80;;;3.55;;
63320;SDS011;49449;48.800;9.534;2023-02-23T14:34:46;5.82;;;4.22;;
63320;SDS011;49449;48.800;9.534;2023-02-23T14:37:17;7.40;;;3.75;;
63320;SDS011;49449;48.800;9.534;2023-02-23T14:39:50;5.78;;;4.05;;
63320;SDS011;49449;48.800;9.534;2023-02-23T14:42:22;4.57;;;4.00;;
63320;SDS011;49449;48.800;9.534;2023-02-23T14:44:52;5.32;;;3.17;;
63320;SDS011;49449;48.800;9.534;2023-02-23T14:47:21;6.47;;;3.22;;
63320;SDS011;49449;48.800;9.534;2023-02-23T14:49:50;5.57;;;3.28;;
63320;SDS011;49449;48.800;9.534;2023-02-23T14:52:22;3.78;;;2.50;;
63320;SDS011;49449;48.800;9.534;2023-02-23T14:55:03;4.75;;;2.42;;
63320;SDS011;49449;48.800;9.534;2023-02-23T14:57:36;4.32;;;2.80;;
63320;SDS011;49449;48.800;9.534;2023-02-23T15:02:37;5.03;;;2.45;;
63320;SDS011;49449;48.800;9.534;2023-02-23T15:05:20;4.40;;;2.08;;
63320;SDS011;49449;48.800;9.534;2023-02-23T15:10:21;4.50;;;2.30;;
63320;SDS011;49449;48.800;9.534;2023-02-23T15:12:54;4.32;;;2.22;;
63320;SDS011;49449;48.800;9.534;2023-02-23T15:15:22;6.68;;;2.40;;
63320;SDS011;49449;48.800;9.534;2023-02-23T15:17:53;5.78;;;2.92;;
63320;SDS011;49449;48.800;9.534;2023-02-23T15:20:23;4.28;;;3.00;;
63320;SDS011;49449;48.800;9.534;2023-02-23T15:22:58;3.95;;;2.63;;
63320;SDS011;49449;48.800;9.534;2023-02-23T15:25:32;3.45;;;2.30;;
63320;SDS011;49449;48.800;9.534;2023-02-23T15:28:22;6.30;;;3.60;;
63320;SDS011;49449;48.800;9.534;2023-02-23T15:30:52;4.75;;;2.67;;
63320;SDS011;49449;48.800;9.534;2023-02-23T15:33:20;3.35;;;3.05;;
63320;SDS011;49449;48.800;9.534;2023-02-23T15:35:54;4.05;;;2.55;;
63320;SDS011;49449;48.800;9.534;2023-02-23T15:38:34;5.30;;;3.08;;
63320;SDS011;49449;48.800;9.534;2023-02-23T15:41:12;5.30;;;3.10;;
63320;SDS011;49449;48.800;9.534;2023-02-23T15:43:45;5.30;;;3.30;;
63320;SDS011;49449;48.800;9.534;2023-02-23T15:46:18;6.82;;;3.53;;